createdAt,value
2018-03-04T00:00:49.978Z,46.93
2018-03-04T00:03:18.087Z,48.10
2018-03-04T00:05:46.215Z,46.30
2018-03-04T00:08:14.324Z,46.27
2018-03-04T00:10:42.433Z,48.27
2018-03-04T00:13:10.553Z,46.43
2018-03-04T00:15:38.675Z,48.33
2018-03-04T00:18:06.784Z,45.17
2018-03-04T00:20:34.905Z,47.63
2018-03-04T00:23:03.041Z,48.07
2018-03-04T00:25:31.151Z,46.83
2018-03-04T00:27:59.268Z,47.77
2018-03-04T00:30:27.375Z,50.63
2018-03-04T00:32:55.480Z,50.33
2018-03-04T00:35:23.610Z,50.67
2018-03-04T00:37:51.709Z,48.07
2018-03-04T00:40:19.828Z,47.00
2018-03-04T00:42:47.937Z,47.50
2018-03-04T00:45:16.060Z,49.77
2018-03-04T00:47:47.421Z,49.70
2018-03-04T00:50:15.522Z,49.13
2018-03-04T00:52:43.653Z,47.90
2018-03-04T00:55:11.786Z,49.23
2018-03-04T00:57:39.895Z,49.97
2018-03-04T01:00:08.156Z,48.70
2018-03-04T01:02:36.277Z,50.13
2018-03-04T01:05:04.412Z,46.30
2018-03-04T01:07:32.529Z,49.60
2018-03-04T01:10:00.638Z,47.53
2018-03-04T01:12:28.735Z,49.17
2018-03-04T01:14:56.877Z,49.03
2018-03-04T01:17:24.983Z,49.50
2018-03-04T01:19:53.118Z,49.37
2018-03-04T01:22:21.237Z,49.37
2018-03-04T01:24:49.358Z,48.10
2018-03-04T01:27:17.460Z,47.47
2018-03-04T01:29:45.584Z,49.60
2018-03-04T01:32:13.692Z,49.00
2018-03-04T01:34:44.721Z,47.70
2018-03-04T01:37:12.856Z,51.23
2018-03-04T01:39:40.956Z,48.90
2018-03-04T01:42:09.087Z,50.43
2018-03-04T01:44:37.210Z,49.27
2018-03-04T01:47:05.304Z,49.03
2018-03-04T01:49:33.445Z,48.93
2018-03-04T01:52:01.569Z,51.43
2018-03-04T01:54:29.687Z,51.43
2018-03-04T01:56:57.795Z,46.77
2018-03-04T01:59:25.918Z,47.33
2018-03-04T02:01:54.039Z,49.93
2018-03-04T02:04:22.173Z,51.03
2018-03-04T02:06:50.285Z,46.77
2018-03-04T02:09:18.421Z,49.70
2018-03-04T02:11:46.570Z,49.50
2018-03-04T02:14:14.742Z,48.53
2018-03-04T02:16:42.843Z,48.73
2018-03-04T02:19:10.965Z,48.50
2018-03-04T02:21:39.098Z,49.00
2018-03-04T02:24:07.192Z,48.63
2018-03-04T02:26:35.328Z,48.80
2018-03-04T02:29:03.455Z,48.43
2018-03-04T02:31:31.565Z,47.90
2018-03-04T02:33:59.697Z,50.13
2018-03-04T02:36:27.822Z,48.57
2018-03-04T02:38:55.918Z,49.00
2018-03-04T02:41:24.036Z,47.47
2018-03-04T02:43:52.594Z,46.23
2018-03-04T02:46:20.735Z,48.20
2018-03-04T02:48:48.842Z,48.00
2018-03-04T02:51:16.956Z,47.53
2018-03-04T02:53:45.066Z,44.93
2018-03-04T02:56:13.207Z,46.83
2018-03-04T02:58:41.315Z,47.57
2018-03-04T03:01:09.435Z,47.83
2018-03-04T03:03:37.553Z,46.07
2018-03-04T03:06:05.663Z,46.83
2018-03-04T03:08:33.771Z,45.00
2018-03-04T03:11:01.886Z,45.43
2018-03-04T03:13:30.014Z,47.33
2018-03-04T03:15:58.114Z,49.13
2018-03-04T03:18:26.228Z,46.93
2018-03-04T03:20:54.678Z,45.07
2018-03-04T03:23:22.791Z,47.00
2018-03-04T03:25:50.900Z,46.83
2018-03-04T03:28:19.023Z,44.07
2018-03-04T03:30:47.156Z,46.13
2018-03-04T03:33:15.272Z,47.00
2018-03-04T03:35:45.293Z,46.87
2018-03-04T03:38:13.402Z,44.43
2018-03-04T03:40:41.519Z,46.90
2018-03-04T03:43:09.636Z,45.33
2018-03-04T03:45:37.740Z,45.87
2018-03-04T03:48:05.851Z,45.67
2018-03-04T03:50:33.999Z,43.83
2018-03-04T03:53:02.100Z,44.70
2018-03-04T03:55:30.225Z,44.40
2018-03-04T03:57:58.357Z,46.20
2018-03-04T04:00:26.466Z,44.77
2018-03-04T04:02:54.581Z,43.70
2018-03-04T04:05:22.694Z,44.73
2018-03-04T04:07:50.798Z,45.23
2018-03-04T04:10:18.931Z,45.33
2018-03-04T04:12:47.096Z,44.63
2018-03-04T04:15:15.202Z,44.07
2018-03-04T04:17:43.345Z,43.57
2018-03-04T04:20:11.461Z,42.63
2018-03-04T04:22:42.648Z,44.07
2018-03-04T04:25:10.885Z,43.47
2018-03-04T04:27:39.001Z,45.57
2018-03-04T04:30:07.118Z,42.57
2018-03-04T04:32:35.229Z,44.43
2018-03-04T04:35:06.275Z,43.43
2018-03-04T04:37:34.403Z,44.93
2018-03-04T04:40:02.513Z,43.43
2018-03-04T04:42:30.644Z,44.13
2018-03-04T04:44:58.801Z,43.47
2018-03-04T04:47:26.913Z,44.03
2018-03-04T04:49:55.087Z,44.10
2018-03-04T04:52:23.188Z,44.47
2018-03-04T04:54:51.314Z,44.53
2018-03-04T04:57:19.434Z,44.33
2018-03-04T04:59:47.539Z,44.37
2018-03-04T05:02:15.671Z,42.40
2018-03-04T05:04:43.808Z,43.53
2018-03-04T05:07:11.932Z,44.73
2018-03-04T05:09:40.051Z,43.73
2018-03-04T05:12:08.167Z,45.10
2018-03-04T05:14:36.290Z,43.57
2018-03-04T05:17:04.404Z,43.77
2018-03-04T05:19:32.722Z,44.63
2018-03-04T05:22:00.855Z,45.33
2018-03-04T05:24:28.955Z,42.27
2018-03-04T05:26:57.070Z,43.57
2018-03-04T05:29:25.220Z,42.47
2018-03-04T05:31:53.290Z,42.47
2018-03-04T05:34:21.414Z,44.03
2018-03-04T05:36:49.528Z,44.00
2018-03-04T05:39:17.725Z,43.97
2018-03-04T05:41:45.826Z,42.93
2018-03-04T05:44:13.945Z,42.20
2018-03-04T05:46:42.067Z,41.37
2018-03-04T05:49:10.176Z,42.77
2018-03-04T05:51:38.309Z,42.33
2018-03-04T05:54:06.428Z,40.83
2018-03-04T05:56:34.555Z,43.00
2018-03-04T05:59:02.730Z,44.23
2018-03-04T06:01:30.871Z,43.90
2018-03-04T06:03:58.976Z,42.87
2018-03-04T06:06:27.087Z,41.93
2018-03-04T06:08:56.164Z,43.33
2018-03-04T06:11:24.277Z,44.43
2018-03-04T06:13:52.398Z,43.17
2018-03-04T06:16:20.519Z,43.10
2018-03-04T06:18:48.619Z,44.80
2018-03-04T06:21:16.746Z,43.33
2018-03-04T06:23:44.881Z,42.47
2018-03-04T06:26:12.991Z,43.50
2018-03-04T06:28:41.096Z,42.53
2018-03-04T06:31:09.206Z,42.97
2018-03-04T06:33:37.318Z,42.37
2018-03-04T06:36:05.419Z,43.03
2018-03-04T06:38:33.551Z,43.67
2018-03-04T06:41:01.681Z,43.27
2018-03-04T06:43:29.802Z,43.73
2018-03-04T06:45:57.927Z,41.93
2018-03-04T06:48:26.046Z,43.83
2018-03-04T06:50:54.468Z,40.90
2018-03-04T06:53:22.584Z,41.43
2018-03-04T06:55:50.691Z,43.23
2018-03-04T06:58:18.826Z,42.93
2018-03-04T07:00:46.977Z,42.10
2018-03-04T07:03:15.073Z,42.90
2018-03-04T07:05:43.179Z,41.27
2018-03-04T07:08:11.300Z,42.47
2018-03-04T07:10:39.422Z,42.47
2018-03-04T07:13:07.538Z,42.97
2018-03-04T07:15:35.662Z,41.57
2018-03-04T07:18:03.770Z,41.50
2018-03-04T07:20:31.874Z,40.70
2018-03-04T07:23:00.024Z,42.07
2018-03-04T07:25:28.334Z,41.23
2018-03-04T07:27:56.447Z,41.43
2018-03-04T07:30:24.567Z,41.33
2018-03-04T07:32:52.685Z,41.03
2018-03-04T07:35:20.795Z,40.07
2018-03-04T07:37:48.908Z,40.93
2018-03-04T07:40:17.028Z,42.13
2018-03-04T07:42:45.866Z,39.20
2018-03-04T07:45:14.042Z,39.70
2018-03-04T07:47:42.156Z,39.13
2018-03-04T07:50:10.263Z,39.00
2018-03-04T07:52:38.399Z,39.27
2018-03-04T07:55:06.549Z,37.77
2018-03-04T07:57:34.751Z,35.77
2018-03-04T08:00:02.885Z,36.03
2018-03-04T08:02:31.030Z,36.90
2018-03-04T08:04:59.119Z,35.93
2018-03-04T08:07:27.254Z,35.43
2018-03-04T08:09:55.370Z,36.57
2018-03-04T08:12:23.488Z,34.77
2018-03-04T08:14:51.593Z,34.10
2018-03-04T08:17:23.259Z,32.73
2018-03-04T08:19:51.366Z,34.90
2018-03-04T08:22:19.488Z,32.47
2018-03-04T08:24:59.451Z,33.77
2018-03-04T08:27:39.466Z,34.63
2018-03-04T08:30:07.574Z,33.33
2018-03-04T08:32:35.671Z,33.10
2018-03-04T08:35:03.798Z,33.57
2018-03-04T08:37:31.900Z,32.83
2018-03-04T08:40:00.043Z,30.60
2018-03-04T08:42:28.184Z,31.60
2018-03-04T08:44:56.310Z,30.83
2018-03-04T08:47:24.405Z,29.50
2018-03-04T08:49:52.532Z,29.43
2018-03-04T08:52:20.648Z,31.50
2018-03-04T08:54:48.780Z,28.23
2018-03-04T08:57:16.930Z,30.27
2018-03-04T08:59:45.045Z,29.23
2018-03-04T09:02:13.220Z,28.30
2018-03-04T09:04:41.317Z,27.23
2018-03-04T09:07:09.436Z,29.03
2018-03-04T09:09:37.540Z,27.13
2018-03-04T09:12:05.668Z,28.93
2018-03-04T09:14:33.791Z,30.67
2018-03-04T09:17:01.909Z,28.57
2018-03-04T09:19:30.028Z,28.30
2018-03-04T09:21:58.166Z,28.47
2018-03-04T09:24:26.277Z,27.90
2018-03-04T09:26:54.398Z,28.03
2018-03-04T09:29:22.509Z,27.03
2018-03-04T09:31:50.629Z,27.40
2018-03-04T09:34:18.724Z,26.80
2018-03-04T09:36:46.850Z,24.97
2018-03-04T09:39:14.962Z,25.97
2018-03-04T09:41:43.083Z,25.23
2018-03-04T09:44:11.210Z,25.63
2018-03-04T09:46:39.328Z,27.27
2018-03-04T09:49:07.425Z,26.77
2018-03-04T09:51:35.588Z,26.60
2018-03-04T09:54:03.699Z,25.93
2018-03-04T09:56:31.824Z,26.03
2018-03-04T09:58:59.955Z,27.33
2018-03-04T10:01:28.108Z,26.80
2018-03-04T10:03:56.203Z,24.87
2018-03-04T10:06:24.484Z,26.17
2018-03-04T10:08:52.670Z,26.63
2018-03-04T10:11:20.840Z,26.73
2018-03-04T10:13:48.950Z,31.58
2018-03-04T10:16:17.073Z,28.57
2018-03-04T10:18:45.188Z,26.57
2018-03-04T10:21:13.314Z,25.17
2018-03-04T10:23:41.437Z,25.57
2018-03-04T10:26:09.560Z,24.60
2018-03-04T10:28:37.671Z,26.07
2018-03-04T10:31:05.792Z,25.80
2018-03-04T10:33:33.911Z,25.50
2018-03-04T10:36:02.017Z,26.47
2018-03-04T10:38:30.166Z,25.90
2018-03-04T10:40:58.277Z,25.10
2018-03-04T10:43:26.386Z,25.63
2018-03-04T10:45:54.517Z,25.70
2018-03-04T10:48:22.618Z,24.80
2018-03-04T10:50:50.729Z,24.60
2018-03-04T10:53:18.847Z,23.83
2018-03-04T10:55:46.948Z,26.57
2018-03-04T10:58:15.085Z,25.63
2018-03-04T11:00:47.042Z,25.33
2018-03-04T11:03:15.949Z,24.43
2018-03-04T11:05:44.052Z,25.30
2018-03-04T11:08:12.235Z,24.07
2018-03-04T11:10:40.344Z,25.30
2018-03-04T11:13:08.448Z,26.30
2018-03-04T11:15:36.563Z,26.60
2018-03-04T11:18:04.831Z,27.20
2018-03-04T11:20:32.950Z,26.77
2018-03-04T11:23:01.171Z,23.73
2018-03-04T11:25:29.287Z,26.80
2018-03-04T11:27:58.300Z,24.67
2018-03-04T11:30:26.446Z,23.50
2018-03-04T11:32:54.576Z,22.77
2018-03-04T11:35:22.679Z,20.50
2018-03-04T11:37:50.825Z,20.70
2018-03-04T11:40:18.945Z,22.93
2018-03-04T11:42:47.079Z,23.30
2018-03-04T11:45:15.223Z,21.63
2018-03-04T11:47:43.339Z,20.73
2018-03-04T11:50:11.444Z,22.00
2018-03-04T11:52:39.570Z,22.63
2018-03-04T11:55:07.675Z,20.77
2018-03-04T11:57:35.808Z,21.47
2018-03-04T12:00:03.977Z,21.37
2018-03-04T12:02:32.095Z,21.10
2018-03-04T12:05:00.213Z,23.60
2018-03-04T12:07:28.362Z,23.90
2018-03-04T12:09:56.484Z,21.53
2018-03-04T12:12:24.635Z,24.27
2018-03-04T12:14:52.716Z,24.33
2018-03-04T12:17:20.861Z,22.73
2018-03-04T12:19:48.997Z,23.57
2018-03-04T12:22:20.186Z,22.10
2018-03-04T12:24:48.359Z,22.17
2018-03-04T12:27:16.564Z,20.77
2018-03-04T12:29:44.718Z,19.83
2018-03-04T12:32:13.101Z,18.23
2018-03-04T12:34:41.677Z,14.53
2018-03-04T12:37:09.805Z,14.87
2018-03-04T12:39:38.096Z,17.17
2018-03-04T12:42:06.247Z,16.17
2018-03-04T12:44:34.321Z,16.33
2018-03-04T12:47:02.450Z,16.00
2018-03-04T12:49:30.559Z,16.00
2018-03-04T12:51:58.679Z,17.53
2018-03-04T12:54:26.846Z,16.77
2018-03-04T12:56:54.961Z,16.70
2018-03-04T12:59:23.074Z,15.40
2018-03-04T13:01:51.253Z,14.23
2018-03-04T13:04:19.442Z,14.00
2018-03-04T13:06:47.584Z,14.67
2018-03-04T13:09:15.693Z,15.43
2018-03-04T13:11:43.798Z,13.23
2018-03-04T13:14:11.934Z,10.73
2018-03-04T13:16:40.107Z,12.57
2018-03-04T13:19:08.238Z,12.50
2018-03-04T13:21:36.365Z,11.67
2018-03-04T13:24:04.488Z,11.10
2018-03-04T13:26:32.605Z,12.33
2018-03-04T13:29:00.724Z,13.00
2018-03-04T13:31:32.474Z,12.20
2018-03-04T13:34:00.592Z,12.83
2018-03-04T13:36:28.716Z,12.30
2018-03-04T13:38:56.835Z,12.00
2018-03-04T13:41:24.987Z,10.57
2018-03-04T13:43:53.116Z,10.90
2018-03-04T13:46:21.269Z,12.13
2018-03-04T13:48:49.409Z,13.43
2018-03-04T13:51:17.714Z,11.60
2018-03-04T13:53:45.846Z,10.87
2018-03-04T13:56:13.975Z,11.13
2018-03-04T13:58:42.131Z,13.23
2018-03-04T14:01:10.271Z,11.83
2018-03-04T14:03:38.377Z,12.17
2018-03-04T14:06:06.514Z,12.47
2018-03-04T14:08:34.643Z,13.13
2018-03-04T14:11:02.840Z,14.00
2018-03-04T14:13:30.969Z,13.63
2018-03-04T14:15:59.097Z,14.00
2018-03-04T14:18:27.464Z,13.07
2018-03-04T14:20:55.614Z,13.20
2018-03-04T14:23:23.738Z,13.00
2018-03-04T14:25:51.861Z,12.57
2018-03-04T14:28:19.994Z,13.27
2018-03-04T14:30:48.172Z,14.27
2018-03-04T14:33:16.303Z,13.77
2018-03-04T14:35:44.430Z,14.03
2018-03-04T14:38:12.545Z,13.57
2018-03-04T14:40:40.679Z,13.60
2018-03-04T14:43:08.779Z,13.97
2018-03-04T14:45:36.896Z,13.23
2018-03-04T14:48:05.012Z,14.47
2018-03-04T14:50:33.133Z,14.97
2018-03-04T14:53:02.156Z,14.83
2018-03-04T14:55:30.299Z,13.93
2018-03-04T14:57:58.423Z,14.57
2018-03-04T15:00:26.576Z,14.67
2018-03-04T15:02:54.711Z,14.67
2018-03-04T15:05:22.836Z,15.77
2018-03-04T15:07:50.949Z,14.97
2018-03-04T15:10:19.430Z,16.03
2018-03-04T15:12:47.526Z,15.87
2018-03-04T15:15:15.645Z,15.73
2018-03-04T15:17:43.773Z,15.60
2018-03-04T15:20:11.896Z,16.07
2018-03-04T15:22:40.020Z,14.90
2018-03-04T15:25:11.075Z,15.27
2018-03-04T15:27:39.212Z,14.90
2018-03-04T15:30:07.330Z,13.83
2018-03-04T15:32:35.475Z,13.57
2018-03-04T15:35:03.618Z,13.77
2018-03-04T15:37:32.595Z,12.50
2018-03-04T15:40:00.737Z,12.37
2018-03-04T15:42:28.878Z,12.63
2018-03-04T15:44:56.987Z,12.53
2018-03-04T15:47:25.150Z,12.53
2018-03-04T15:49:53.347Z,12.83
2018-03-04T15:52:21.398Z,13.60
2018-03-04T15:54:49.520Z,13.47
2018-03-04T15:57:17.624Z,12.60
2018-03-04T15:59:45.730Z,12.93
2018-03-04T16:02:13.865Z,14.17
2018-03-04T16:04:41.998Z,13.47
2018-03-04T16:07:10.122Z,13.70
2018-03-04T16:09:38.442Z,14.30
2018-03-04T16:12:06.541Z,12.40
2018-03-04T16:14:34.665Z,12.93
2018-03-04T16:17:02.923Z,12.53
2018-03-04T16:19:31.049Z,12.20
2018-03-04T16:21:59.185Z,10.33
2018-03-04T16:24:27.495Z,10.80
2018-03-04T16:26:55.739Z,9.67
2018-03-04T16:29:23.858Z,9.57
2018-03-04T16:31:51.988Z,10.33
2018-03-04T16:34:20.127Z,8.70
2018-03-04T16:36:48.558Z,8.30
2018-03-04T16:39:16.655Z,7.77
2018-03-04T16:41:44.752Z,8.03
2018-03-04T16:44:12.857Z,7.03
2018-03-04T16:46:40.976Z,7.47
2018-03-04T16:49:09.088Z,8.20
2018-03-04T16:51:37.194Z,7.23
2018-03-04T16:54:05.423Z,7.13
2018-03-04T16:56:33.536Z,7.57
2018-03-04T16:59:07.326Z,7.67
2018-03-04T17:01:35.436Z,7.03
2018-03-04T17:04:03.541Z,7.47
2018-03-04T17:06:31.672Z,7.60
2018-03-04T17:08:59.793Z,7.60
2018-03-04T17:11:27.947Z,7.73
2018-03-04T17:13:56.241Z,6.93
2018-03-04T17:16:24.339Z,7.53
2018-03-04T17:18:52.480Z,7.47
2018-03-04T17:21:20.608Z,7.57
2018-03-04T17:23:48.734Z,7.70
2018-03-04T17:26:16.861Z,7.77
2018-03-04T17:28:44.983Z,7.67
2018-03-04T17:31:13.101Z,7.90
2018-03-04T17:33:41.210Z,7.70
2018-03-04T17:36:09.319Z,7.97
2018-03-04T17:38:37.428Z,8.60
2018-03-04T17:41:05.534Z,8.50
2018-03-04T17:43:33.865Z,8.73
2018-03-04T17:46:01.963Z,8.17
2018-03-04T17:48:30.090Z,8.57
2018-03-04T17:50:58.203Z,8.40
2018-03-04T17:53:26.322Z,8.97
2018-03-04T17:55:54.437Z,8.80
2018-03-04T17:58:22.539Z,9.50
2018-03-04T18:00:50.656Z,9.83
2018-03-04T18:03:18.762Z,11.03
2018-03-04T18:05:46.873Z,9.67
2018-03-04T18:08:14.988Z,10.73
2018-03-04T18:10:43.325Z,10.40
2018-03-04T18:13:11.492Z,10.40
2018-03-04T18:15:39.625Z,11.07
2018-03-04T18:18:07.748Z,9.97
2018-03-04T18:20:35.881Z,10.03
2018-03-04T18:23:03.987Z,10.37
2018-03-04T18:25:32.105Z,10.70
2018-03-04T18:28:00.328Z,10.00
2018-03-04T18:30:28.403Z,9.83
2018-03-04T18:32:56.519Z,9.63
2018-03-04T18:35:24.642Z,10.40
2018-03-04T18:37:52.771Z,10.07
2018-03-04T18:40:20.892Z,10.23
2018-03-04T18:42:48.994Z,9.73
2018-03-04T18:45:17.113Z,9.50
2018-03-04T18:47:45.225Z,9.30
2018-03-04T18:50:13.320Z,10.13
2018-03-04T18:52:41.441Z,10.33
2018-03-04T18:55:09.555Z,9.97
2018-03-04T18:57:37.655Z,9.80
2018-03-04T19:00:05.771Z,9.47
2018-03-04T19:02:33.868Z,10.93
2018-03-04T19:05:01.998Z,10.17
2018-03-04T19:07:30.107Z,10.87
2018-03-04T19:09:58.232Z,10.73
2018-03-04T19:12:26.406Z,11.80
2018-03-04T19:14:54.467Z,11.60
2018-03-04T19:17:22.714Z,12.03
2018-03-04T19:19:50.823Z,13.43
2018-03-04T19:22:18.957Z,15.10
2018-03-04T19:24:47.091Z,16.30
2018-03-04T19:27:15.211Z,15.63
2018-03-04T19:29:43.340Z,17.07
2018-03-04T19:32:14.658Z,20.93
2018-03-04T19:34:45.708Z,20.00
2018-03-04T19:37:13.847Z,20.53
2018-03-04T19:39:41.960Z,20.23
2018-03-04T19:42:10.073Z,20.00
2018-03-04T19:44:38.319Z,21.43
2018-03-04T19:47:06.430Z,21.10
2018-03-04T19:49:34.576Z,20.53
2018-03-04T19:52:02.685Z,22.67
2018-03-04T19:54:30.827Z,21.20
2018-03-04T19:56:58.923Z,23.50
2018-03-04T19:59:27.059Z,22.07
2018-03-04T20:01:55.153Z,24.00
2018-03-04T20:04:23.278Z,23.17
2018-03-04T20:06:51.538Z,24.27
2018-03-04T20:09:19.666Z,23.53
2018-03-04T20:11:51.219Z,23.93
2018-03-04T20:14:22.955Z,24.43
2018-03-04T20:16:54.825Z,24.67
2018-03-04T20:19:22.923Z,23.77
2018-03-04T20:21:51.053Z,24.60
2018-03-04T20:24:19.161Z,24.40
2018-03-04T20:26:47.273Z,25.77
2018-03-04T20:29:17.332Z,25.57
2018-03-04T20:31:45.509Z,25.00
2018-03-04T20:34:17.164Z,25.53
2018-03-04T20:36:45.273Z,26.27
2018-03-04T20:39:13.377Z,25.77
2018-03-04T20:41:41.498Z,25.63
2018-03-04T20:44:09.634Z,25.00
2018-03-04T20:46:37.740Z,26.67
2018-03-04T20:49:05.835Z,28.13
2018-03-04T20:51:33.966Z,26.83
2018-03-04T20:54:02.981Z,27.80
2018-03-04T20:56:31.102Z,27.27
2018-03-04T20:58:59.228Z,29.40
2018-03-04T21:01:27.333Z,28.33
2018-03-04T21:03:55.439Z,28.83
2018-03-04T21:06:23.560Z,29.80
2018-03-04T21:08:51.669Z,29.67
2018-03-04T21:11:19.791Z,31.33
2018-03-04T21:13:47.912Z,30.13
2018-03-04T21:16:16.057Z,29.33
2018-03-04T21:18:44.174Z,31.47
2018-03-04T21:21:12.287Z,28.40
2018-03-04T21:23:40.428Z,29.30
2018-03-04T21:26:08.671Z,29.37
2018-03-04T21:28:36.783Z,30.63
2018-03-04T21:31:04.907Z,30.67
2018-03-04T21:33:33.081Z,30.20
2018-03-04T21:36:01.181Z,30.07
2018-03-04T21:38:29.285Z,30.23
2018-03-04T21:40:57.634Z,30.50
2018-03-04T21:43:25.982Z,29.13
2018-03-04T21:45:54.096Z,30.40
2018-03-04T21:48:22.291Z,29.37
2018-03-04T21:50:50.388Z,27.97
2018-03-04T21:53:18.508Z,29.57
2018-03-04T21:55:46.639Z,29.03
2018-03-04T21:58:14.755Z,28.73
2018-03-04T22:00:42.899Z,28.47
2018-03-04T22:03:11.029Z,28.97
2018-03-04T22:05:39.208Z,29.67
2018-03-04T22:08:07.272Z,29.60
2018-03-04T22:10:35.394Z,27.50
2018-03-04T22:13:03.511Z,29.40
2018-03-04T22:15:31.638Z,29.37
2018-03-04T22:17:59.745Z,27.80
2018-03-04T22:20:27.873Z,27.90
2018-03-04T22:22:55.967Z,29.30
2018-03-04T22:25:24.086Z,27.73
2018-03-04T22:27:52.920Z,27.47
2018-03-04T22:30:21.011Z,26.73
2018-03-04T22:32:49.120Z,27.10
2018-03-04T22:35:17.247Z,26.33
2018-03-04T22:37:46.251Z,26.30
2018-03-04T22:40:14.354Z,27.40
2018-03-04T22:42:42.485Z,27.47
2018-03-04T22:45:10.580Z,26.97
2018-03-04T22:47:38.700Z,23.60
2018-03-04T22:50:06.822Z,23.80
2018-03-04T22:52:34.918Z,24.60
2018-03-04T22:55:03.036Z,23.13
2018-03-04T22:57:31.156Z,21.17
2018-03-04T22:59:59.278Z,19.30
2018-03-04T23:02:27.390Z,20.03
2018-03-04T23:04:55.518Z,17.73
2018-03-04T23:07:23.638Z,13.97
2018-03-04T23:09:51.766Z,13.10
2018-03-04T23:12:19.897Z,10.93
2018-03-04T23:14:48.009Z,10.73
2018-03-04T23:17:16.093Z,9.93
2018-03-04T23:19:44.217Z,9.20
2018-03-04T23:22:12.331Z,8.77
2018-03-04T23:24:40.432Z,8.80
2018-03-04T23:27:08.571Z,8.90
2018-03-04T23:29:36.656Z,7.47
2018-03-04T23:32:04.774Z,7.97
2018-03-04T23:34:32.893Z,7.03
2018-03-04T23:37:00.992Z,6.97
2018-03-04T23:39:29.255Z,7.17
2018-03-04T23:41:57.370Z,7.20
2018-03-04T23:44:25.486Z,6.67
2018-03-04T23:46:53.579Z,6.60
2018-03-04T23:49:21.693Z,6.93
2018-03-04T23:51:49.791Z,6.60
2018-03-04T23:54:17.924Z,6.80
2018-03-04T23:56:46.027Z,6.37
2018-03-04T23:59:14.128Z,6.80
